Time;durP1;ratioP1;P1;durP2;ratioP2;P2;SDS_P1;SDS_P2;PMS_P1;PMS_P2;Temp;Humidity;BMP_temperature;BMP_pressure;BME280_temperature;BME280_humidity;BME280_pressure;Samples;Min_cycle;Max_cycle;Signal;HPM_P1;HPM_P2
2024/01/23 00:29:34;;;;;;;0.90;0.60;;;;;;;12.51;100.00;99772.75;5295680;22;20148;-85
2024/01/23 00:32:02;;;;;;;1.88;0.85;;;;;;;12.50;100.00;99771.00;4974165;28;20122;-86
2024/01/23 00:34:31;;;;;;;2.03;0.50;;;;;;;12.50;100.00;99771.00;4975656;28;20086;-84
2024/01/23 00:37:07;;;;;;;1.35;0.75;;;;;;;12.51;100.00;99767.56;4978403;28;20043;-85
2024/01/23 00:39:39;;;;;;;0.85;0.47;;;;;;;12.52;100.00;99779.66;4974947;28;20228;-87
2024/01/23 00:42:09;;;;;;;1.08;0.52;;;;;;;12.52;100.00;99784.84;4978864;28;20053;-86
2024/01/23 05:14:59;;;;;;;3.28;0.50;;;;;;;11.28;100.00;100090.22;6183583;22;20205;-87
2024/01/23 15:57:36;;;;;;;0.20;0.20;;;;;;;9.92;100.00;100606.28;5213946;23;20055;-83
2024/01/23 16:00:08;;;;;;;2.45;0.40;;;;;;;9.89;100.00;100606.16;4949064;29;20077;-85
2024/01/23 16:02:37;;;;;;;0.20;0.20;;;;;;;9.90;100.00;100609.66;4939780;29;20056;-87
2024/01/23 16:05:13;;;;;;;0.70;0.40;;;;;;;9.89;100.00;100613.91;4940475;29;20083;-84
2024/01/23 16:07:42;;;;;;;0.30;0.30;;;;;;;9.94;100.00;100619.22;4949512;29;20110;-85
2024/01/23 16:10:11;;;;;;;0.47;0.20;;;;;;;9.92;100.00;100621.78;4946219;29;20149;-86
2024/01/23 16:12:42;;;;;;;2.00;0.63;;;;;;;9.97;100.00;100634.84;4945747;29;20068;-85
2024/01/23 16:15:17;;;;;;;0.20;0.20;;;;;;;9.96;100.00;100633.06;4943419;29;20138;-85
2024/01/23 16:17:50;;;;;;;1.92;0.28;;;;;;;9.95;100.00;100626.16;4942370;29;20106;-85
2024/01/23 16:20:19;;;;;;;0.25;0.20;;;;;;;10.06;100.00;100645.47;4950376;29;20142;-85
2024/01/23 16:22:55;;;;;;;0.85;0.30;;;;;;;10.09;100.00;100650.72;4949854;29;20072;-85
2024/01/23 16:25:24;;;;;;;0.10;0.10;;;;;;;10.07;100.00;100653.25;4941276;29;20102;-85
2024/01/23 16:27:55;;;;;;;0.40;0.22;;;;;;;10.13;100.00;100665.47;4944572;29;20058;-86
2024/01/23 16:30:24;;;;;;;0.68;0.30;;;;;;;10.11;100.00;100664.56;4949567;29;20059;-84
2024/01/23 16:32:58;;;;;;;0.63;0.20;;;;;;;10.16;100.00;100668.16;4955023;29;20102;-85
2024/01/23 16:35:27;;;;;;;0.28;0.20;;;;;;;10.13;100.00;100662.03;4947733;29;20066;-85
2024/01/23 16:37:55;;;;;;;0.10;0.10;;;;;;;10.14;100.00;100674.97;4952325;29;20503;-84
2024/01/23 16:40:25;;;;;;;0.22;0.22;;;;;;;10.13;100.00;100687.88;4947726;29;20059;-85
2024/01/23 16:43:05;;;;;;;0.25;0.20;;;;;;;10.11;100.00;100700.75;4947970;29;20063;-85
2024/01/23 16:45:34;;;;;;;0.10;0.10;;;;;;;10.07;100.00;100706.66;4941738;29;20064;-84
2024/01/23 16:48:04;;;;;;;0.28;0.20;;;;;;;10.04;100.00;100707.44;4952983;29;20118;-85
2024/01/23 16:50:35;;;;;;;0.30;0.10;;;;;;;10.04;100.00;100701.41;4935025;29;20051;-85
2024/01/23 16:53:03;;;;;;;0.17;0.15;;;;;;;10.14;100.00;100721.53;4952040;29;20055;-84
2024/01/23 16:55:32;;;;;;;1.15;0.30;;;;;;;10.16;100.00;100714.69;4945583;29;20052;-86
2024/01/23 16:58:03;;;;;;;0.28;0.28;;;;;;;10.25;100.00;100725.31;4945634;28;20056;-85
2024/01/23 17:00:44;;;;;;;;;;;;;;;;;;;;;
2024/01/23 17:03:14;;;;;;;1.90;0.63;;;;;;;10.24;100.00;100723.56;4939657;29;20046;-84
2024/01/23 17:05:43;;;;;;;0.73;0.45;;;;;;;10.26;100.00;100728.78;4940915;29;20650;-84
2024/01/23 17:08:12;;;;;;;1.80;0.65;;;;;;;10.32;100.00;100736.75;4941826;29;20048;-84
2024/01/23 17:10:43;;;;;;;0.45;0.30;;;;;;;10.34;100.00;100742.00;4925749;29;20058;-84
2024/01/23 17:13:14;;;;;;;0.95;0.60;;;;;;;10.45;100.00;100748.38;4927800;29;20062;-85
2024/01/23 17:15:42;;;;;;;0.50;0.45;;;;;;;10.58;100.00;100755.66;4942851;29;20134;-85
2024/01/23 17:18:12;;;;;;;1.02;0.50;;;;;;;10.73;100.00;100756.94;4942708;29;20140;-84
2024/01/23 17:20:48;;;;;;;0.30;0.20;;;;;;;10.92;100.00;100764.38;4948742;29;20067;-85
2024/01/23 17:23:17;;;;;;;0.25;0.20;;;;;;;10.96;100.00;100757.56;4944358;29;20051;-85
2024/01/23 17:25:49;;;;;;;0.85;0.40;;;;;;;11.05;100.00;100761.28;4948071;29;20067;-86
2024/01/23 19:57:16;;;;;;;1.15;0.40;;;;;;;13.07;100.00;100818.00;6177811;23;20048;-87
2024/01/23 19:59:46;;;;;;;1.10;0.55;;;;;;;12.97;100.00;100802.22;6188937;23;20087;-88
2024/01/23 20:43:40;;;;;;;3.97;0.52;;;;;;;13.56;96.53;100762.69;6169924;23;20366;-86
2024/01/23 20:46:15;;;;;;;1.85;0.35;;;;;;;13.53;87.04;100766.94;6219288;23;20028;-87
2024/01/23 22:58:48;;;;;;;0.52;0.30;;;;;;;13.49;74.81;100781.63;6212388;23;20064;-83
2024/01/23 23:40:31;;;;;;;0.43;0.30;;;;;;;12.93;85.17;100760.59;6147682;22;4194908;-87
2024/01/23 23:43:02;;;;;;;2.30;0.20;;;;;;;12.96;85.45;100764.13;6257286;23;20028;-85
2024/01/23 23:45:31;;;;;;;0.95;0.20;;;;;;;12.92;85.62;100762.31;6257021;23;20066;-87
